Wichita Mid Continent Airport
KICT : now visible

Aeroporto :











RITROVATECI SU...

 
LOGIN :

Iscrizione | Disclaimer

   EN    FR    IT 

 









Sommario :    VFR   VFR Marginale   IFR   IFR Intensivo   IFR Molto Intensivo
Visibilità : 
Base nubi : 
>= 8 km
>= 3000ft
5 / 8 km
1000 / 3000 ft
1500m / 5 km
500 / 1000 ft
800 / 1500m
200 / 500 ft
< 800m
< 200 ft
Simboli :   Temporali  Nebbia  Neve Forte  Precipitazioni Forti  Vento > 20 kt






- Altitudine del aeroporto : 1333 ft
- Codice IATA : ICT


KICT - Wichita Mid Continent

ULTIMO METAR :
  • 130553Z 00000KT 10SM FEW220 03/00 A2996 RMK AO2 SLP151 T00280000 10089 20022 401220022 58014

METARs OBSOLETI :
  • 130453Z 19004KT 10SM FEW220 03/01 A2998 RMK AO2 SLP158 T00330006
  • 130353Z 18005KT 10SM FEW150 SCT180 BKN220 06/02 A2999 RMK AO2 SLP160 T00610017

TAF KICT
Valido dal 13 a 06 ore il 14 a 06 ore UTC


130521Z 1306/1406 VRB04KT P6SM SCT110 SCT180
FM131700 23007KT P6SM SCT100
FM132000 28009KT P6SM FEW150
FM140500 31010KT P6SM SCT250



MetMap, La meteo Aeronautica in un colpo d'occhio ! - Copyright ORBIFLY Dicembre 2007 - Disclaimer

ORBIFLY MET'MAP TEAM :

Programmazione e sviluppo : Alexandra Zaïnal
Concezione : Baudouin d'Aumeries
Aiuto per la programmazione : Marc-Olivier Méhu
Supporto tecnico e logistico : Manuel Goepfert
Aiuto per la traduzione : Arnaldo La Scala

Contatto : metmap@orbifly.com




FONTI E CREDITI :

   NOAA       Earth
Advisory